sensor_id;sensor_type;location;lat;lon;timestamp;P1;durP1;ratioP1;P2;durP2;ratioP2
4186;SDS011;2107;52.306;10.484;2024-02-28T00:02:00;1.23;;;1.23;;
4186;SDS011;2107;52.306;10.484;2024-02-28T00:04:27;1.00;;;1.00;;
4186;SDS011;2107;52.306;10.484;2024-02-28T00:06:54;1.20;;;1.20;;
4186;SDS011;2107;52.306;10.484;2024-02-28T00:09:21;0.90;;;0.90;;
4186;SDS011;2107;52.306;10.484;2024-02-28T00:11:48;1.00;;;1.00;;
4186;SDS011;2107;52.306;10.484;2024-02-28T00:14:15;1.00;;;1.00;;
4186;SDS011;2107;52.306;10.484;2024-02-28T00:16:43;0.80;;;0.80;;
4186;SDS011;2107;52.306;10.484;2024-02-28T00:19:11;0.70;;;0.70;;
4186;SDS011;2107;52.306;10.484;2024-02-28T00:21:38;0.83;;;0.83;;
4186;SDS011;2107;52.306;10.484;2024-02-28T00:24:05;1.00;;;1.00;;
4186;SDS011;2107;52.306;10.484;2024-02-28T00:26:33;1.30;;;1.30;;
4186;SDS011;2107;52.306;10.484;2024-02-28T00:29:00;1.20;;;1.20;;
4186;SDS011;2107;52.306;10.484;2024-02-28T00:31:26;1.00;;;1.00;;
4186;SDS011;2107;52.306;10.484;2024-02-28T00:33:55;0.53;;;0.53;;
4186;SDS011;2107;52.306;10.484;2024-02-28T00:36:22;0.50;;;0.50;;
4186;SDS011;2107;52.306;10.484;2024-02-28T00:38:49;0.60;;;0.60;;
4186;SDS011;2107;52.306;10.484;2024-02-28T00:41:15;0.40;;;0.40;;
4186;SDS011;2107;52.306;10.484;2024-02-28T00:43:42;0.50;;;0.50;;
4186;SDS011;2107;52.306;10.484;2024-02-28T00:46:09;0.40;;;0.40;;
4186;SDS011;2107;52.306;10.484;2024-02-28T00:48:37;0.50;;;0.50;;
4186;SDS011;2107;52.306;10.484;2024-02-28T00:51:05;0.60;;;0.60;;
4186;SDS011;2107;52.306;10.484;2024-02-28T00:53:33;0.53;;;0.53;;
4186;SDS011;2107;52.306;10.484;2024-02-28T00:56:00;0.50;;;0.50;;
4186;SDS011;2107;52.306;10.484;2024-02-28T00:58:27;0.30;;;0.30;;
4186;SDS011;2107;52.306;10.484;2024-02-28T01:00:55;0.30;;;0.30;;
4186;SDS011;2107;52.306;10.484;2024-02-28T01:03:22;0.30;;;0.30;;
4186;SDS011;2107;52.306;10.484;2024-02-28T01:05:49;0.30;;;0.30;;
4186;SDS011;2107;52.306;10.484;2024-02-28T01:08:17;0.30;;;0.30;;
4186;SDS011;2107;52.306;10.484;2024-02-28T01:10:45;0.30;;;0.30;;
4186;SDS011;2107;52.306;10.484;2024-02-28T01:13:13;0.30;;;0.30;;
4186;SDS011;2107;52.306;10.484;2024-02-28T01:15:40;0.20;;;0.20;;
4186;SDS011;2107;52.306;10.484;2024-02-28T01:18:08;0.20;;;0.20;;
4186;SDS011;2107;52.306;10.484;2024-02-28T01:20:36;0.20;;;0.20;;
4186;SDS011;2107;52.306;10.484;2024-02-28T01:23:03;0.20;;;0.20;;
4186;SDS011;2107;52.306;10.484;2024-02-28T01:25:31;0.30;;;0.30;;
4186;SDS011;2107;52.306;10.484;2024-02-28T01:27:58;0.30;;;0.30;;
4186;SDS011;2107;52.306;10.484;2024-02-28T01:30:25;0.20;;;0.20;;
4186;SDS011;2107;52.306;10.484;2024-02-28T01:32:52;0.30;;;0.30;;
4186;SDS011;2107;52.306;10.484;2024-02-28T01:35:19;0.30;;;0.30;;
4186;SDS011;2107;52.306;10.484;2024-02-28T01:37:47;0.30;;;0.30;;
4186;SDS011;2107;52.306;10.484;2024-02-28T01:40:14;0.30;;;0.30;;
4186;SDS011;2107;52.306;10.484;2024-02-28T01:42:42;0.30;;;0.30;;
4186;SDS011;2107;52.306;10.484;2024-02-28T01:45:09;0.30;;;0.30;;
4186;SDS011;2107;52.306;10.484;2024-02-28T01:47:40;0.30;;;0.30;;
4186;SDS011;2107;52.306;10.484;2024-02-28T01:50:07;0.40;;;0.40;;
4186;SDS011;2107;52.306;10.484;2024-02-28T01:52:35;0.40;;;0.40;;
4186;SDS011;2107;52.306;10.484;2024-02-28T01:55:03;0.30;;;0.30;;
4186;SDS011;2107;52.306;10.484;2024-02-28T01:57:31;0.40;;;0.40;;
4186;SDS011;2107;52.306;10.484;2024-02-28T02:00:01;0.40;;;0.40;;
4186;SDS011;2107;52.306;10.484;2024-02-28T02:02:29;0.30;;;0.30;;
4186;SDS011;2107;52.306;10.484;2024-02-28T02:04:56;0.30;;;0.30;;
4186;SDS011;2107;52.306;10.484;2024-02-28T02:07:23;0.20;;;0.20;;
4186;SDS011;2107;52.306;10.484;2024-02-28T02:09:51;0.30;;;0.30;;
4186;SDS011;2107;52.306;10.484;2024-02-28T02:12:18;0.30;;;0.30;;
4186;SDS011;2107;52.306;10.484;2024-02-28T02:14:46;0.30;;;0.30;;
4186;SDS011;2107;52.306;10.484;2024-02-28T02:17:15;0.40;;;0.40;;
4186;SDS011;2107;52.306;10.484;2024-02-28T02:19:42;0.30;;;0.30;;
4186;SDS011;2107;52.306;10.484;2024-02-28T02:22:09;0.30;;;0.30;;
4186;SDS011;2107;52.306;10.484;2024-02-28T02:24:40;0.33;;;0.33;;
4186;SDS011;2107;52.306;10.484;2024-02-28T02:27:06;0.30;;;0.30;;
4186;SDS011;2107;52.306;10.484;2024-02-28T02:29:33;0.30;;;0.30;;
4186;SDS011;2107;52.306;10.484;2024-02-28T02:32:00;0.30;;;0.30;;
4186;SDS011;2107;52.306;10.484;2024-02-28T02:34:27;0.30;;;0.30;;
4186;SDS011;2107;52.306;10.484;2024-02-28T02:36:54;0.30;;;0.30;;
4186;SDS011;2107;52.306;10.484;2024-02-28T02:39:20;0.30;;;0.30;;
4186;SDS011;2107;52.306;10.484;2024-02-28T02:41:49;0.20;;;0.20;;
4186;SDS011;2107;52.306;10.484;2024-02-28T02:44:16;0.30;;;0.30;;
4186;SDS011;2107;52.306;10.484;2024-02-28T02:46:42;0.30;;;0.30;;
4186;SDS011;2107;52.306;10.484;2024-02-28T02:49:09;0.30;;;0.30;;
4186;SDS011;2107;52.306;10.484;2024-02-28T02:51:36;0.50;;;0.50;;
4186;SDS011;2107;52.306;10.484;2024-02-28T02:54:03;0.30;;;0.30;;
4186;SDS011;2107;52.306;10.484;2024-02-28T02:56:30;0.40;;;0.40;;
4186;SDS011;2107;52.306;10.484;2024-02-28T02:58:58;0.30;;;0.30;;
4186;SDS011;2107;52.306;10.484;2024-02-28T03:01:25;0.30;;;0.30;;
4186;SDS011;2107;52.306;10.484;2024-02-28T03:03:52;0.40;;;0.40;;
4186;SDS011;2107;52.306;10.484;2024-02-28T03:06:19;0.40;;;0.40;;
4186;SDS011;2107;52.306;10.484;2024-02-28T03:08:46;0.40;;;0.40;;
4186;SDS011;2107;52.306;10.484;2024-02-28T03:11:13;0.40;;;0.40;;
4186;SDS011;2107;52.306;10.484;2024-02-28T03:13:40;0.37;;;0.37;;
4186;SDS011;2107;52.306;10.484;2024-02-28T03:16:08;0.30;;;0.30;;
4186;SDS011;2107;52.306;10.484;2024-02-28T03:18:34;0.40;;;0.40;;
4186;SDS011;2107;52.306;10.484;2024-02-28T03:21:01;0.33;;;0.33;;
4186;SDS011;2107;52.306;10.484;2024-02-28T03:23:28;0.30;;;0.30;;
4186;SDS011;2107;52.306;10.484;2024-02-28T03:25:55;0.30;;;0.30;;
4186;SDS011;2107;52.306;10.484;2024-02-28T03:28:21;0.30;;;0.30;;
4186;SDS011;2107;52.306;10.484;2024-02-28T03:30:48;0.30;;;0.30;;
4186;SDS011;2107;52.306;10.484;2024-02-28T03:33:17;0.30;;;0.30;;
4186;SDS011;2107;52.306;10.484;2024-02-28T03:35:43;0.30;;;0.30;;
4186;SDS011;2107;52.306;10.484;2024-02-28T03:38:10;0.30;;;0.30;;
4186;SDS011;2107;52.306;10.484;2024-02-28T03:40:37;0.20;;;0.20;;
4186;SDS011;2107;52.306;10.484;2024-02-28T03:43:04;0.30;;;0.30;;
4186;SDS011;2107;52.306;10.484;2024-02-28T03:45:34;0.30;;;0.30;;
4186;SDS011;2107;52.306;10.484;2024-02-28T03:48:03;0.30;;;0.30;;
4186;SDS011;2107;52.306;10.484;2024-02-28T03:50:32;0.30;;;0.30;;
4186;SDS011;2107;52.306;10.484;2024-02-28T03:52:59;0.50;;;0.50;;
4186;SDS011;2107;52.306;10.484;2024-02-28T03:55:25;0.30;;;0.30;;
4186;SDS011;2107;52.306;10.484;2024-02-28T03:57:52;0.40;;;0.40;;
4186;SDS011;2107;52.306;10.484;2024-02-28T04:00:19;0.30;;;0.30;;
4186;SDS011;2107;52.306;10.484;2024-02-28T04:02:46;0.30;;;0.30;;
4186;SDS011;2107;52.306;10.484;2024-02-28T04:05:13;0.20;;;0.20;;
4186;SDS011;2107;52.306;10.484;2024-02-28T04:07:43;0.30;;;0.30;;
4186;SDS011;2107;52.306;10.484;2024-02-28T04:10:09;0.40;;;0.40;;
4186;SDS011;2107;52.306;10.484;2024-02-28T04:12:36;0.40;;;0.40;;
4186;SDS011;2107;52.306;10.484;2024-02-28T04:15:03;0.30;;;0.30;;
4186;SDS011;2107;52.306;10.484;2024-02-28T04:17:31;0.30;;;0.30;;
4186;SDS011;2107;52.306;10.484;2024-02-28T04:19:58;0.30;;;0.30;;
4186;SDS011;2107;52.306;10.484;2024-02-28T04:22:29;0.30;;;0.30;;
4186;SDS011;2107;52.306;10.484;2024-02-28T04:24:57;0.30;;;0.30;;
4186;SDS011;2107;52.306;10.484;2024-02-28T04:27:24;0.30;;;0.30;;
4186;SDS011;2107;52.306;10.484;2024-02-28T04:29:51;0.30;;;0.30;;
4186;SDS011;2107;52.306;10.484;2024-02-28T04:32:17;0.30;;;0.30;;
4186;SDS011;2107;52.306;10.484;2024-02-28T04:34:44;0.40;;;0.40;;
4186;SDS011;2107;52.306;10.484;2024-02-28T04:37:10;0.40;;;0.40;;
4186;SDS011;2107;52.306;10.484;2024-02-28T04:39:37;0.30;;;0.30;;
4186;SDS011;2107;52.306;10.484;2024-02-28T04:42:06;0.30;;;0.30;;
4186;SDS011;2107;52.306;10.484;2024-02-28T04:44:33;0.50;;;0.50;;
4186;SDS011;2107;52.306;10.484;2024-02-28T04:47:00;0.33;;;0.33;;
4186;SDS011;2107;52.306;10.484;2024-02-28T04:49:27;0.60;;;0.60;;
4186;SDS011;2107;52.306;10.484;2024-02-28T04:51:54;0.50;;;0.50;;
4186;SDS011;2107;52.306;10.484;2024-02-28T04:54:21;0.50;;;0.50;;
4186;SDS011;2107;52.306;10.484;2024-02-28T04:56:48;0.50;;;0.50;;
4186;SDS011;2107;52.306;10.484;2024-02-28T04:59:17;0.50;;;0.50;;
4186;SDS011;2107;52.306;10.484;2024-02-28T05:01:44;0.50;;;0.50;;
4186;SDS011;2107;52.306;10.484;2024-02-28T05:04:11;0.33;;;0.33;;
4186;SDS011;2107;52.306;10.484;2024-02-28T05:06:38;0.60;;;0.60;;
4186;SDS011;2107;52.306;10.484;2024-02-28T05:09:05;0.50;;;0.50;;
4186;SDS011;2107;52.306;10.484;2024-02-28T05:11:32;0.60;;;0.60;;
4186;SDS011;2107;52.306;10.484;2024-02-28T05:13:59;0.50;;;0.50;;
4186;SDS011;2107;52.306;10.484;2024-02-28T05:16:27;0.60;;;0.60;;
4186;SDS011;2107;52.306;10.484;2024-02-28T05:18:54;0.60;;;0.60;;
4186;SDS011;2107;52.306;10.484;2024-02-28T05:21:21;0.70;;;0.70;;
4186;SDS011;2107;52.306;10.484;2024-02-28T05:23:48;0.53;;;0.53;;
4186;SDS011;2107;52.306;10.484;2024-02-28T05:26:15;0.50;;;0.50;;
4186;SDS011;2107;52.306;10.484;2024-02-28T05:28:42;0.50;;;0.50;;
4186;SDS011;2107;52.306;10.484;2024-02-28T05:31:19;0.70;;;0.70;;
4186;SDS011;2107;52.306;10.484;2024-02-28T05:33:49;0.40;;;0.40;;
4186;SDS011;2107;52.306;10.484;2024-02-28T05:36:17;0.70;;;0.70;;
4186;SDS011;2107;52.306;10.484;2024-02-28T05:38:44;0.60;;;0.60;;
4186;SDS011;2107;52.306;10.484;2024-02-28T05:41:11;0.60;;;0.60;;
4186;SDS011;2107;52.306;10.484;2024-02-28T05:43:40;0.50;;;0.50;;
4186;SDS011;2107;52.306;10.484;2024-02-28T05:46:07;0.50;;;0.50;;
4186;SDS011;2107;52.306;10.484;2024-02-28T05:48:34;0.50;;;0.50;;
4186;SDS011;2107;52.306;10.484;2024-02-28T05:51:02;0.40;;;0.40;;
4186;SDS011;2107;52.306;10.484;2024-02-28T05:53:30;0.40;;;0.40;;
4186;SDS011;2107;52.306;10.484;2024-02-28T05:56:00;0.60;;;0.60;;
4186;SDS011;2107;52.306;10.484;2024-02-28T05:58:27;0.50;;;0.50;;
4186;SDS011;2107;52.306;10.484;2024-02-28T06:00:54;0.40;;;0.40;;
4186;SDS011;2107;52.306;10.484;2024-02-28T06:03:21;0.50;;;0.50;;
4186;SDS011;2107;52.306;10.484;2024-02-28T06:05:48;0.50;;;0.50;;
4186;SDS011;2107;52.306;10.484;2024-02-28T06:08:17;0.60;;;0.60;;
4186;SDS011;2107;52.306;10.484;2024-02-28T06:10:43;0.70;;;0.70;;
4186;SDS011;2107;52.306;10.484;2024-02-28T06:13:11;0.60;;;0.60;;
4186;SDS011;2107;52.306;10.484;2024-02-28T06:15:39;0.70;;;0.70;;
4186;SDS011;2107;52.306;10.484;2024-02-28T06:18:07;0.70;;;0.70;;
4186;SDS011;2107;52.306;10.484;2024-02-28T06:20:34;0.60;;;0.60;;
4186;SDS011;2107;52.306;10.484;2024-02-28T06:23:02;0.50;;;0.50;;
4186;SDS011;2107;52.306;10.484;2024-02-28T06:25:30;0.70;;;0.70;;
4186;SDS011;2107;52.306;10.484;2024-02-28T06:27:59;0.70;;;0.70;;
4186;SDS011;2107;52.306;10.484;2024-02-28T06:30:27;0.97;;;0.97;;
4186;SDS011;2107;52.306;10.484;2024-02-28T06:32:54;0.80;;;0.80;;
4186;SDS011;2107;52.306;10.484;2024-02-28T06:35:21;0.70;;;0.70;;
4186;SDS011;2107;52.306;10.484;2024-02-28T06:37:48;0.60;;;0.60;;
4186;SDS011;2107;52.306;10.484;2024-02-28T06:40:15;0.70;;;0.70;;
4186;SDS011;2107;52.306;10.484;2024-02-28T06:42:43;0.60;;;0.60;;
4186;SDS011;2107;52.306;10.484;2024-02-28T06:45:10;0.70;;;0.70;;
4186;SDS011;2107;52.306;10.484;2024-02-28T06:47:37;0.70;;;0.70;;
4186;SDS011;2107;52.306;10.484;2024-02-28T06:50:05;0.80;;;0.80;;
4186;SDS011;2107;52.306;10.484;2024-02-28T06:52:33;0.80;;;0.80;;
4186;SDS011;2107;52.306;10.484;2024-02-28T06:55:01;0.70;;;0.70;;
4186;SDS011;2107;52.306;10.484;2024-02-28T06:57:31;0.63;;;0.63;;
4186;SDS011;2107;52.306;10.484;2024-02-28T06:59:59;0.60;;;0.60;;
4186;SDS011;2107;52.306;10.484;2024-02-28T07:02:26;0.50;;;0.50;;
4186;SDS011;2107;52.306;10.484;2024-02-28T07:04:53;0.50;;;0.50;;
4186;SDS011;2107;52.306;10.484;2024-02-28T07:07:20;0.60;;;0.60;;
4186;SDS011;2107;52.306;10.484;2024-02-28T07:09:47;0.60;;;0.60;;
4186;SDS011;2107;52.306;10.484;2024-02-28T07:12:13;0.70;;;0.70;;
4186;SDS011;2107;52.306;10.484;2024-02-28T07:14:40;0.70;;;0.70;;
4186;SDS011;2107;52.306;10.484;2024-02-28T07:17:08;0.70;;;0.70;;
4186;SDS011;2107;52.306;10.484;2024-02-28T07:19:35;0.80;;;0.80;;
4186;SDS011;2107;52.306;10.484;2024-02-28T07:22:03;0.90;;;0.90;;
4186;SDS011;2107;52.306;10.484;2024-02-28T07:24:31;0.70;;;0.70;;
4186;SDS011;2107;52.306;10.484;2024-02-28T07:26:58;0.63;;;0.63;;
4186;SDS011;2107;52.306;10.484;2024-02-28T07:29:25;0.70;;;0.70;;
4186;SDS011;2107;52.306;10.484;2024-02-28T07:31:52;0.80;;;0.80;;
4186;SDS011;2107;52.306;10.484;2024-02-28T07:34:20;0.70;;;0.70;;
4186;SDS011;2107;52.306;10.484;2024-02-28T07:36:47;0.70;;;0.70;;
4186;SDS011;2107;52.306;10.484;2024-02-28T07:39:15;0.70;;;0.70;;
4186;SDS011;2107;52.306;10.484;2024-02-28T07:41:42;1.00;;;1.00;;
4186;SDS011;2107;52.306;10.484;2024-02-28T07:44:08;0.90;;;0.90;;
4186;SDS011;2107;52.306;10.484;2024-02-28T07:46:36;1.10;;;1.10;;
4186;SDS011;2107;52.306;10.484;2024-02-28T07:49:03;1.00;;;1.00;;
4186;SDS011;2107;52.306;10.484;2024-02-28T07:51:31;1.00;;;1.00;;
4186;SDS011;2107;52.306;10.484;2024-02-28T07:53:58;0.90;;;0.90;;
4186;SDS011;2107;52.306;10.484;2024-02-28T07:56:25;0.80;;;0.80;;
4186;SDS011;2107;52.306;10.484;2024-02-28T07:58:52;0.87;;;0.87;;
4186;SDS011;2107;52.306;10.484;2024-02-28T08:01:18;0.80;;;0.80;;
4186;SDS011;2107;52.306;10.484;2024-02-28T08:03:47;0.80;;;0.80;;
4186;SDS011;2107;52.306;10.484;2024-02-28T08:06:14;1.00;;;1.00;;
4186;SDS011;2107;52.306;10.484;2024-02-28T08:08:44;0.80;;;0.80;;
4186;SDS011;2107;52.306;10.484;2024-02-28T08:11:11;0.70;;;0.70;;
4186;SDS011;2107;52.306;10.484;2024-02-28T08:13:38;0.90;;;0.90;;
4186;SDS011;2107;52.306;10.484;2024-02-28T08:16:05;0.90;;;0.90;;
4186;SDS011;2107;52.306;10.484;2024-02-28T08:18:34;0.90;;;0.90;;
4186;SDS011;2107;52.306;10.484;2024-02-28T08:21:01;1.00;;;1.00;;
4186;SDS011;2107;52.306;10.484;2024-02-28T08:23:28;1.00;;;1.00;;
4186;SDS011;2107;52.306;10.484;2024-02-28T08:25:57;0.70;;;0.70;;
4186;SDS011;2107;52.306;10.484;2024-02-28T08:28:23;0.90;;;0.90;;
4186;SDS011;2107;52.306;10.484;2024-02-28T08:30:50;0.90;;;0.90;;
4186;SDS011;2107;52.306;10.484;2024-02-28T08:33:17;1.07;;;1.07;;
4186;SDS011;2107;52.306;10.484;2024-02-28T08:35:44;0.97;;;0.97;;
4186;SDS011;2107;52.306;10.484;2024-02-28T08:38:11;0.80;;;0.80;;
4186;SDS011;2107;52.306;10.484;2024-02-28T08:40:38;0.70;;;0.70;;
4186;SDS011;2107;52.306;10.484;2024-02-28T08:43:06;0.80;;;0.80;;
4186;SDS011;2107;52.306;10.484;2024-02-28T08:45:33;0.80;;;0.80;;
4186;SDS011;2107;52.306;10.484;2024-02-28T08:48:01;0.60;;;0.60;;
4186;SDS011;2107;52.306;10.484;2024-02-28T08:50:28;0.50;;;0.50;;
4186;SDS011;2107;52.306;10.484;2024-02-28T08:52:55;0.60;;;0.60;;
4186;SDS011;2107;52.306;10.484;2024-02-28T08:55:22;0.50;;;0.50;;
4186;SDS011;2107;52.306;10.484;2024-02-28T08:57:49;0.60;;;0.60;;
4186;SDS011;2107;52.306;10.484;2024-02-28T09:00:17;0.50;;;0.50;;
4186;SDS011;2107;52.306;10.484;2024-02-28T09:02:44;0.60;;;0.60;;
4186;SDS011;2107;52.306;10.484;2024-02-28T09:05:11;0.60;;;0.60;;
4186;SDS011;2107;52.306;10.484;2024-02-28T09:07:38;0.60;;;0.60;;
4186;SDS011;2107;52.306;10.484;2024-02-28T09:10:05;0.63;;;0.63;;
4186;SDS011;2107;52.306;10.484;2024-02-28T09:12:33;0.80;;;0.80;;
4186;SDS011;2107;52.306;10.484;2024-02-28T09:15:00;0.80;;;0.80;;
4186;SDS011;2107;52.306;10.484;2024-02-28T09:17:28;0.70;;;0.70;;
4186;SDS011;2107;52.306;10.484;2024-02-28T09:19:56;0.60;;;0.60;;
4186;SDS011;2107;52.306;10.484;2024-02-28T09:22:25;0.60;;;0.60;;
4186;SDS011;2107;52.306;10.484;2024-02-28T09:24:52;0.53;;;0.53;;
4186;SDS011;2107;52.306;10.484;2024-02-28T09:27:19;0.60;;;0.60;;
4186;SDS011;2107;52.306;10.484;2024-02-28T09:29:46;0.60;;;0.60;;
4186;SDS011;2107;52.306;10.484;2024-02-28T09:32:13;0.80;;;0.80;;
4186;SDS011;2107;52.306;10.484;2024-02-28T09:34:42;0.60;;;0.60;;
4186;SDS011;2107;52.306;10.484;2024-02-28T09:37:08;0.60;;;0.60;;
4186;SDS011;2107;52.306;10.484;2024-02-28T09:39:37;0.50;;;0.50;;
4186;SDS011;2107;52.306;10.484;2024-02-28T09:42:05;0.50;;;0.50;;
4186;SDS011;2107;52.306;10.484;2024-02-28T09:44:33;0.60;;;0.60;;
4186;SDS011;2107;52.306;10.484;2024-02-28T09:47:00;0.80;;;0.80;;
4186;SDS011;2107;52.306;10.484;2024-02-28T09:49:28;0.97;;;0.97;;
4186;SDS011;2107;52.306;10.484;2024-02-28T09:51:59;0.60;;;0.60;;
4186;SDS011;2107;52.306;10.484;2024-02-28T09:54:27;0.70;;;0.70;;
4186;SDS011;2107;52.306;10.484;2024-02-28T09:56:54;0.70;;;0.70;;
4186;SDS011;2107;52.306;10.484;2024-02-28T09:59:22;0.70;;;0.70;;
4186;SDS011;2107;52.306;10.484;2024-02-28T10:01:52;0.70;;;0.70;;
4186;SDS011;2107;52.306;10.484;2024-02-28T10:04:22;0.80;;;0.80;;
4186;SDS011;2107;52.306;10.484;2024-02-28T10:06:51;0.70;;;0.70;;
4186;SDS011;2107;52.306;10.484;2024-02-28T10:09:19;0.70;;;0.70;;
4186;SDS011;2107;52.306;10.484;2024-02-28T10:11:46;0.90;;;0.90;;
4186;SDS011;2107;52.306;10.484;2024-02-28T10:14:16;0.70;;;0.70;;
4186;SDS011;2107;52.306;10.484;2024-02-28T10:16:45;0.73;;;0.73;;
4186;SDS011;2107;52.306;10.484;2024-02-28T10:19:12;0.80;;;0.80;;
4186;SDS011;2107;52.306;10.484;2024-02-28T10:21:39;0.90;;;0.90;;
4186;SDS011;2107;52.306;10.484;2024-02-28T10:24:05;0.80;;;0.80;;
4186;SDS011;2107;52.306;10.484;2024-02-28T10:26:41;0.67;;;0.67;;
4186;SDS011;2107;52.306;10.484;2024-02-28T10:29:08;0.80;;;0.80;;
4186;SDS011;2107;52.306;10.484;2024-02-28T10:31:37;0.60;;;0.60;;
4186;SDS011;2107;52.306;10.484;2024-02-28T10:34:04;0.60;;;0.60;;
4186;SDS011;2107;52.306;10.484;2024-02-28T10:36:33;0.70;;;0.70;;
4186;SDS011;2107;52.306;10.484;2024-02-28T10:39:00;0.80;;;0.80;;
4186;SDS011;2107;52.306;10.484;2024-02-28T10:41:28;0.90;;;0.90;;
4186;SDS011;2107;52.306;10.484;2024-02-28T10:43:57;0.90;;;0.90;;
4186;SDS011;2107;52.306;10.484;2024-02-28T10:46:25;0.90;;;0.90;;
4186;SDS011;2107;52.306;10.484;2024-02-28T10:48:52;0.70;;;0.70;;
4186;SDS011;2107;52.306;10.484;2024-02-28T10:51:20;0.70;;;0.70;;
4186;SDS011;2107;52.306;10.484;2024-02-28T10:53:51;0.80;;;0.80;;
4186;SDS011;2107;52.306;10.484;2024-02-28T10:56:28;0.87;;;0.87;;
4186;SDS011;2107;52.306;10.484;2024-02-28T10:58:58;0.70;;;0.70;;
4186;SDS011;2107;52.306;10.484;2024-02-28T11:01:26;0.60;;;0.60;;
4186;SDS011;2107;52.306;10.484;2024-02-28T11:03:53;0.50;;;0.50;;
4186;SDS011;2107;52.306;10.484;2024-02-28T11:06:21;0.40;;;0.40;;
4186;SDS011;2107;52.306;10.484;2024-02-28T11:08:49;0.50;;;0.50;;
4186;SDS011;2107;52.306;10.484;2024-02-28T11:11:19;0.60;;;0.60;;
4186;SDS011;2107;52.306;10.484;2024-02-28T11:13:52;0.80;;;0.80;;
4186;SDS011;2107;52.306;10.484;2024-02-28T11:16:27;0.80;;;0.80;;
4186;SDS011;2107;52.306;10.484;2024-02-28T11:18:54;0.90;;;0.90;;
4186;SDS011;2107;52.306;10.484;2024-02-28T11:21:22;0.90;;;0.90;;
4186;SDS011;2107;52.306;10.484;2024-02-28T11:23:51;0.80;;;0.80;;
4186;SDS011;2107;52.306;10.484;2024-02-28T11:26:18;1.00;;;1.00;;
4186;SDS011;2107;52.306;10.484;2024-02-28T11:28:45;1.10;;;1.10;;
4186;SDS011;2107;52.306;10.484;2024-02-28T11:31:13;1.03;;;1.03;;
4186;SDS011;2107;52.306;10.484;2024-02-28T11:33:41;1.33;;;1.33;;
4186;SDS011;2107;52.306;10.484;2024-02-28T11:36:08;0.90;;;0.90;;
4186;SDS011;2107;52.306;10.484;2024-02-28T11:38:38;1.03;;;1.03;;
4186;SDS011;2107;52.306;10.484;2024-02-28T11:41:05;0.80;;;0.80;;
4186;SDS011;2107;52.306;10.484;2024-02-28T11:43:32;0.87;;;0.87;;
4186;SDS011;2107;52.306;10.484;2024-02-28T11:46:00;1.00;;;1.00;;
4186;SDS011;2107;52.306;10.484;2024-02-28T11:48:29;0.90;;;0.90;;
4186;SDS011;2107;52.306;10.484;2024-02-28T11:50:59;1.00;;;1.00;;
4186;SDS011;2107;52.306;10.484;2024-02-28T11:53:26;1.00;;;1.00;;
4186;SDS011;2107;52.306;10.484;2024-02-28T11:55:54;0.80;;;0.80;;
4186;SDS011;2107;52.306;10.484;2024-02-28T11:58:22;0.70;;;0.70;;
4186;SDS011;2107;52.306;10.484;2024-02-28T12:00:49;1.00;;;1.00;;
4186;SDS011;2107;52.306;10.484;2024-02-28T12:03:19;1.00;;;1.00;;
4186;SDS011;2107;52.306;10.484;2024-02-28T12:05:47;0.80;;;0.80;;
4186;SDS011;2107;52.306;10.484;2024-02-28T12:08:16;1.10;;;1.10;;
4186;SDS011;2107;52.306;10.484;2024-02-28T12:10:44;0.80;;;0.80;;
4186;SDS011;2107;52.306;10.484;2024-02-28T12:13:11;0.73;;;0.73;;
4186;SDS011;2107;52.306;10.484;2024-02-28T12:15:41;0.70;;;0.70;;
4186;SDS011;2107;52.306;10.484;2024-02-28T12:18:08;1.00;;;1.00;;
4186;SDS011;2107;52.306;10.484;2024-02-28T12:20:35;0.80;;;0.80;;
4186;SDS011;2107;52.306;10.484;2024-02-28T12:23:03;0.50;;;0.50;;
4186;SDS011;2107;52.306;10.484;2024-02-28T12:25:31;0.70;;;0.70;;
4186;SDS011;2107;52.306;10.484;2024-02-28T12:27:59;0.63;;;0.63;;
4186;SDS011;2107;52.306;10.484;2024-02-28T12:30:26;0.70;;;0.70;;
4186;SDS011;2107;52.306;10.484;2024-02-28T12:32:53;0.87;;;0.87;;
4186;SDS011;2107;52.306;10.484;2024-02-28T12:35:20;0.80;;;0.80;;
4186;SDS011;2107;52.306;10.484;2024-02-28T12:37:47;0.60;;;0.60;;
4186;SDS011;2107;52.306;10.484;2024-02-28T12:40:16;0.70;;;0.70;;
4186;SDS011;2107;52.306;10.484;2024-02-28T12:42:44;0.50;;;0.50;;
4186;SDS011;2107;52.306;10.484;2024-02-28T12:45:11;0.40;;;0.40;;
4186;SDS011;2107;52.306;10.484;2024-02-28T12:47:38;0.60;;;0.60;;
4186;SDS011;2107;52.306;10.484;2024-02-28T12:50:06;0.70;;;0.70;;
4186;SDS011;2107;52.306;10.484;2024-02-28T12:52:34;0.80;;;0.80;;
4186;SDS011;2107;52.306;10.484;2024-02-28T12:55:01;0.90;;;0.90;;
4186;SDS011;2107;52.306;10.484;2024-02-28T12:57:28;1.10;;;1.10;;
4186;SDS011;2107;52.306;10.484;2024-02-28T12:59:56;0.93;;;0.93;;
4186;SDS011;2107;52.306;10.484;2024-02-28T13:02:23;0.90;;;0.90;;
4186;SDS011;2107;52.306;10.484;2024-02-28T13:04:50;0.90;;;0.90;;
4186;SDS011;2107;52.306;10.484;2024-02-28T13:07:17;0.90;;;0.90;;
4186;SDS011;2107;52.306;10.484;2024-02-28T13:09:47;1.10;;;1.10;;
4186;SDS011;2107;52.306;10.484;2024-02-28T13:12:14;1.20;;;1.20;;
4186;SDS011;2107;52.306;10.484;2024-02-28T13:14:41;1.10;;;1.10;;
4186;SDS011;2107;52.306;10.484;2024-02-28T13:17:09;1.20;;;1.20;;
4186;SDS011;2107;52.306;10.484;2024-02-28T13:19:36;1.00;;;1.00;;
4186;SDS011;2107;52.306;10.484;2024-02-28T13:22:03;1.00;;;1.00;;
4186;SDS011;2107;52.306;10.484;2024-02-28T13:24:30;0.90;;;0.90;;
4186;SDS011;2107;52.306;10.484;2024-02-28T13:26:57;0.90;;;0.90;;
4186;SDS011;2107;52.306;10.484;2024-02-28T13:29:24;1.00;;;1.00;;
4186;SDS011;2107;52.306;10.484;2024-02-28T13:31:51;1.07;;;1.07;;
4186;SDS011;2107;52.306;10.484;2024-02-28T13:34:19;1.10;;;1.10;;
4186;SDS011;2107;52.306;10.484;2024-02-28T13:36:46;1.00;;;1.00;;
4186;SDS011;2107;52.306;10.484;2024-02-28T13:39:12;1.10;;;1.10;;
4186;SDS011;2107;52.306;10.484;2024-02-28T13:41:41;0.80;;;0.80;;
4186;SDS011;2107;52.306;10.484;2024-02-28T13:44:08;0.90;;;0.90;;
4186;SDS011;2107;52.306;10.484;2024-02-28T13:46:35;0.90;;;0.90;;
4186;SDS011;2107;52.306;10.484;2024-02-28T13:49:04;0.80;;;0.80;;
4186;SDS011;2107;52.306;10.484;2024-02-28T13:51:32;0.90;;;0.90;;
4186;SDS011;2107;52.306;10.484;2024-02-28T13:53:59;0.90;;;0.90;;
4186;SDS011;2107;52.306;10.484;2024-02-28T13:56:27;0.80;;;0.80;;
4186;SDS011;2107;52.306;10.484;2024-02-28T13:58:55;0.80;;;0.80;;
4186;SDS011;2107;52.306;10.484;2024-02-28T14:01:22;0.80;;;0.80;;
4186;SDS011;2107;52.306;10.484;2024-02-28T14:03:49;0.90;;;0.90;;
4186;SDS011;2107;52.306;10.484;2024-02-28T14:06:16;1.10;;;1.10;;
4186;SDS011;2107;52.306;10.484;2024-02-28T14:08:44;0.97;;;0.97;;
4186;SDS011;2107;52.306;10.484;2024-02-28T14:11:11;1.07;;;1.07;;
4186;SDS011;2107;52.306;10.484;2024-02-28T14:13:41;1.20;;;1.20;;
4186;SDS011;2107;52.306;10.484;2024-02-28T14:16:08;1.10;;;1.10;;
4186;SDS011;2107;52.306;10.484;2024-02-28T14:18:35;1.10;;;1.10;;
4186;SDS011;2107;52.306;10.484;2024-02-28T14:21:02;1.00;;;1.00;;
4186;SDS011;2107;52.306;10.484;2024-02-28T14:23:29;1.10;;;1.10;;
4186;SDS011;2107;52.306;10.484;2024-02-28T14:25:57;1.17;;;1.17;;
4186;SDS011;2107;52.306;10.484;2024-02-28T14:28:24;1.20;;;1.20;;
4186;SDS011;2107;52.306;10.484;2024-02-28T14:30:51;1.10;;;1.10;;
4186;SDS011;2107;52.306;10.484;2024-02-28T14:33:18;1.20;;;1.20;;
4186;SDS011;2107;52.306;10.484;2024-02-28T14:35:44;1.10;;;1.10;;
4186;SDS011;2107;52.306;10.484;2024-02-28T14:38:11;1.20;;;1.20;;
4186;SDS011;2107;52.306;10.484;2024-02-28T14:40:38;0.80;;;0.80;;
4186;SDS011;2107;52.306;10.484;2024-02-28T14:43:07;0.90;;;0.90;;
4186;SDS011;2107;52.306;10.484;2024-02-28T14:45:34;1.00;;;1.00;;
4186;SDS011;2107;52.306;10.484;2024-02-28T14:48:01;1.10;;;1.10;;
4186;SDS011;2107;52.306;10.484;2024-02-28T14:50:30;1.10;;;1.10;;
4186;SDS011;2107;52.306;10.484;2024-02-28T14:52:57;1.30;;;1.30;;
4186;SDS011;2107;52.306;10.484;2024-02-28T14:55:24;1.40;;;1.40;;
4186;SDS011;2107;52.306;10.484;2024-02-28T14:57:51;1.37;;;1.37;;
4186;SDS011;2107;52.306;10.484;2024-02-28T15:00:20;1.40;;;1.40;;
4186;SDS011;2107;52.306;10.484;2024-02-28T15:02:48;1.40;;;1.40;;